sensor_id;sensor_type;location;lat;lon;timestamp;P1;durP1;ratioP1;P2;durP2;ratioP2
18887;SDS011;9576;47.792;9.628;2022-10-30T00:01:46;12.85;;;6.45;;
18887;SDS011;9576;47.792;9.628;2022-10-30T00:04:48;29.50;;;6.47;;
18887;SDS011;9576;47.792;9.628;2022-10-30T00:07:50;16.20;;;6.15;;
18887;SDS011;9576;47.792;9.628;2022-10-30T00:10:53;10.02;;;5.47;;
18887;SDS011;9576;47.792;9.628;2022-10-30T00:13:55;25.20;;;5.82;;
18887;SDS011;9576;47.792;9.628;2022-10-30T00:16:57;19.40;;;6.50;;
18887;SDS011;9576;47.792;9.628;2022-10-30T00:19:59;17.77;;;6.35;;
18887;SDS011;9576;47.792;9.628;2022-10-30T00:23:01;13.55;;;5.55;;
18887;SDS011;9576;47.792;9.628;2022-10-30T00:26:05;13.75;;;5.97;;
18887;SDS011;9576;47.792;9.628;2022-10-30T00:29:07;22.67;;;6.18;;
18887;SDS011;9576;47.792;9.628;2022-10-30T00:32:09;13.60;;;5.65;;
18887;SDS011;9576;47.792;9.628;2022-10-30T00:35:11;18.25;;;6.07;;
18887;SDS011;9576;47.792;9.628;2022-10-30T00:38:13;13.35;;;5.75;;
18887;SDS011;9576;47.792;9.628;2022-10-30T00:41:17;14.43;;;6.03;;
18887;SDS011;9576;47.792;9.628;2022-10-30T00:44:34;19.85;;;6.45;;
18887;SDS011;9576;47.792;9.628;2022-10-30T00:47:38;18.08;;;5.95;;
18887;SDS011;9576;47.792;9.628;2022-10-30T00:50:43;21.73;;;6.93;;
18887;SDS011;9576;47.792;9.628;2022-10-30T00:53:45;32.90;;;7.15;;
18887;SDS011;9576;47.792;9.628;2022-10-30T00:56:49;18.85;;;6.43;;
18887;SDS011;9576;47.792;9.628;2022-10-30T00:59:51;15.70;;;7.15;;
18887;SDS011;9576;47.792;9.628;2022-10-30T01:02:54;13.07;;;6.03;;
18887;SDS011;9576;47.792;9.628;2022-10-30T01:05:57;13.95;;;5.93;;
18887;SDS011;9576;47.792;9.628;2022-10-30T01:09:02;14.60;;;5.45;;
18887;SDS011;9576;47.792;9.628;2022-10-30T01:12:06;17.70;;;6.65;;
18887;SDS011;9576;47.792;9.628;2022-10-30T01:15:08;19.05;;;6.47;;
18887;SDS011;9576;47.792;9.628;2022-10-30T01:18:19;17.73;;;7.10;;
18887;SDS011;9576;47.792;9.628;2022-10-30T01:21:35;15.18;;;6.05;;
18887;SDS011;9576;47.792;9.628;2022-10-30T01:24:48;18.02;;;7.85;;
18887;SDS011;9576;47.792;9.628;2022-10-30T01:28:03;16.30;;;6.35;;
18887;SDS011;9576;47.792;9.628;2022-10-30T01:31:15;11.85;;;6.03;;
18887;SDS011;9576;47.792;9.628;2022-10-30T01:34:32;18.88;;;7.13;;
18887;SDS011;9576;47.792;9.628;2022-10-30T01:37:44;22.92;;;6.32;;
18887;SDS011;9576;47.792;9.628;2022-10-30T01:40:53;20.67;;;6.78;;
18887;SDS011;9576;47.792;9.628;2022-10-30T01:43:58;12.55;;;6.32;;
18887;SDS011;9576;47.792;9.628;2022-10-30T01:47:07;14.45;;;5.80;;
18887;SDS011;9576;47.792;9.628;2022-10-30T01:50:21;13.85;;;5.60;;
18887;SDS011;9576;47.792;9.628;2022-10-30T01:53:36;25.63;;;6.38;;
18887;SDS011;9576;47.792;9.628;2022-10-30T01:56:48;22.92;;;6.63;;
18887;SDS011;9576;47.792;9.628;2022-10-30T02:00:03;23.70;;;6.20;;
18887;SDS011;9576;47.792;9.628;2022-10-30T02:03:07;16.27;;;6.22;;
18887;SDS011;9576;47.792;9.628;2022-10-30T02:06:09;25.70;;;6.47;;
18887;SDS011;9576;47.792;9.628;2022-10-30T02:09:13;14.93;;;6.05;;
18887;SDS011;9576;47.792;9.628;2022-10-30T02:12:15;18.10;;;6.05;;
18887;SDS011;9576;47.792;9.628;2022-10-30T02:15:19;36.25;;;5.78;;
18887;SDS011;9576;47.792;9.628;2022-10-30T02:18:21;11.00;;;5.85;;
18887;SDS011;9576;47.792;9.628;2022-10-30T02:21:25;15.18;;;5.32;;
18887;SDS011;9576;47.792;9.628;2022-10-30T02:24:27;13.93;;;6.22;;
18887;SDS011;9576;47.792;9.628;2022-10-30T02:27:29;11.05;;;5.65;;
18887;SDS011;9576;47.792;9.628;2022-10-30T02:30:31;10.95;;;5.38;;
18887;SDS011;9576;47.792;9.628;2022-10-30T02:33:33;14.73;;;5.35;;
18887;SDS011;9576;47.792;9.628;2022-10-30T02:36:37;11.13;;;5.25;;
18887;SDS011;9576;47.792;9.628;2022-10-30T02:39:39;15.63;;;5.80;;
18887;SDS011;9576;47.792;9.628;2022-10-30T02:42:40;15.18;;;6.00;;
18887;SDS011;9576;47.792;9.628;2022-10-30T02:45:42;19.60;;;5.68;;
18887;SDS011;9576;47.792;9.628;2022-10-30T02:48:44;11.48;;;5.00;;
18887;SDS011;9576;47.792;9.628;2022-10-30T02:51:47;10.05;;;4.47;;
18887;SDS011;9576;47.792;9.628;2022-10-30T02:54:49;14.93;;;4.57;;
18887;SDS011;9576;47.792;9.628;2022-10-30T02:57:51;12.88;;;5.05;;
18887;SDS011;9576;47.792;9.628;2022-10-30T03:00:54;9.75;;;5.28;;
18887;SDS011;9576;47.792;9.628;2022-10-30T03:03:56;11.05;;;5.35;;
18887;SDS011;9576;47.792;9.628;2022-10-30T03:06:59;20.55;;;5.80;;
18887;SDS011;9576;47.792;9.628;2022-10-30T03:10:01;6.50;;;4.35;;
18887;SDS011;9576;47.792;9.628;2022-10-30T03:13:03;7.95;;;5.05;;
18887;SDS011;9576;47.792;9.628;2022-10-30T03:16:06;18.83;;;6.65;;
18887;SDS011;9576;47.792;9.628;2022-10-30T03:19:09;11.68;;;5.20;;
18887;SDS011;9576;47.792;9.628;2022-10-30T03:22:12;15.25;;;5.82;;
18887;SDS011;9576;47.792;9.628;2022-10-30T03:25:14;11.82;;;4.88;;
18887;SDS011;9576;47.792;9.628;2022-10-30T03:28:16;20.95;;;6.70;;
18887;SDS011;9576;47.792;9.628;2022-10-30T03:31:18;15.63;;;6.40;;
18887;SDS011;9576;47.792;9.628;2022-10-30T03:34:20;12.02;;;5.78;;
18887;SDS011;9576;47.792;9.628;2022-10-30T03:37:23;18.85;;;5.05;;
18887;SDS011;9576;47.792;9.628;2022-10-30T03:40:25;9.07;;;5.05;;
18887;SDS011;9576;47.792;9.628;2022-10-30T03:43:27;15.13;;;5.97;;
18887;SDS011;9576;47.792;9.628;2022-10-30T03:46:29;21.75;;;6.05;;
18887;SDS011;9576;47.792;9.628;2022-10-30T03:49:31;10.70;;;5.35;;
18887;SDS011;9576;47.792;9.628;2022-10-30T03:52:34;25.05;;;6.40;;
18887;SDS011;9576;47.792;9.628;2022-10-30T03:55:36;29.58;;;6.45;;
18887;SDS011;9576;47.792;9.628;2022-10-30T03:58:38;11.35;;;5.80;;
18887;SDS011;9576;47.792;9.628;2022-10-30T04:01:40;19.10;;;6.35;;
18887;SDS011;9576;47.792;9.628;2022-10-30T04:04:42;9.27;;;5.60;;
18887;SDS011;9576;47.792;9.628;2022-10-30T04:07:45;12.27;;;5.80;;
18887;SDS011;9576;47.792;9.628;2022-10-30T04:10:48;22.35;;;7.97;;
18887;SDS011;9576;47.792;9.628;2022-10-30T04:13:50;13.02;;;6.15;;
18887;SDS011;9576;47.792;9.628;2022-10-30T04:16:51;11.48;;;6.38;;
18887;SDS011;9576;47.792;9.628;2022-10-30T04:19:53;14.02;;;5.55;;
18887;SDS011;9576;47.792;9.628;2022-10-30T04:22:57;21.88;;;6.03;;
18887;SDS011;9576;47.792;9.628;2022-10-30T04:26:00;10.48;;;5.38;;
18887;SDS011;9576;47.792;9.628;2022-10-30T04:29:02;23.33;;;6.22;;
18887;SDS011;9576;47.792;9.628;2022-10-30T04:32:04;17.98;;;5.93;;
18887;SDS011;9576;47.792;9.628;2022-10-30T04:35:06;12.75;;;6.32;;
18887;SDS011;9576;47.792;9.628;2022-10-30T04:38:10;11.60;;;6.35;;
18887;SDS011;9576;47.792;9.628;2022-10-30T04:41:14;6.90;;;4.72;;
18887;SDS011;9576;47.792;9.628;2022-10-30T04:44:16;11.93;;;6.75;;
18887;SDS011;9576;47.792;9.628;2022-10-30T04:47:17;12.80;;;5.60;;
18887;SDS011;9576;47.792;9.628;2022-10-30T04:50:19;9.20;;;5.10;;
18887;SDS011;9576;47.792;9.628;2022-10-30T04:53:23;14.98;;;5.40;;
18887;SDS011;9576;47.792;9.628;2022-10-30T04:56:25;10.50;;;5.18;;
18887;SDS011;9576;47.792;9.628;2022-10-30T04:59:26;9.45;;;5.10;;
18887;SDS011;9576;47.792;9.628;2022-10-30T05:02:28;37.80;;;8.95;;
18887;SDS011;9576;47.792;9.628;2022-10-30T05:05:30;12.88;;;6.40;;
18887;SDS011;9576;47.792;9.628;2022-10-30T05:08:34;10.18;;;5.57;;
18887;SDS011;9576;47.792;9.628;2022-10-30T05:11:36;10.85;;;6.00;;
18887;SDS011;9576;47.792;9.628;2022-10-30T05:14:38;10.50;;;5.40;;
18887;SDS011;9576;47.792;9.628;2022-10-30T05:17:40;9.20;;;4.30;;
18887;SDS011;9576;47.792;9.628;2022-10-30T05:20:42;9.55;;;4.55;;
18887;SDS011;9576;47.792;9.628;2022-10-30T05:23:47;17.27;;;5.68;;
18887;SDS011;9576;47.792;9.628;2022-10-30T05:26:49;20.85;;;5.65;;
18887;SDS011;9576;47.792;9.628;2022-10-30T05:29:51;17.00;;;6.38;;
18887;SDS011;9576;47.792;9.628;2022-10-30T05:32:56;12.52;;;6.10;;
18887;SDS011;9576;47.792;9.628;2022-10-30T05:35:58;21.73;;;5.65;;
18887;SDS011;9576;47.792;9.628;2022-10-30T05:39:01;12.60;;;5.65;;
18887;SDS011;9576;47.792;9.628;2022-10-30T05:42:03;11.07;;;5.38;;
18887;SDS011;9576;47.792;9.628;2022-10-30T05:45:06;13.73;;;4.90;;
18887;SDS011;9576;47.792;9.628;2022-10-30T05:48:08;13.30;;;5.68;;
18887;SDS011;9576;47.792;9.628;2022-10-30T05:51:10;12.45;;;5.70;;
18887;SDS011;9576;47.792;9.628;2022-10-30T05:54:13;8.27;;;5.57;;
18887;SDS011;9576;47.792;9.628;2022-10-30T05:57:15;12.88;;;5.03;;
18887;SDS011;9576;47.792;9.628;2022-10-30T06:00:17;13.98;;;5.53;;
18887;SDS011;9576;47.792;9.628;2022-10-30T06:03:19;11.02;;;5.75;;
18887;SDS011;9576;47.792;9.628;2022-10-30T06:06:21;13.63;;;5.80;;
18887;SDS011;9576;47.792;9.628;2022-10-30T06:09:24;15.93;;;5.38;;
18887;SDS011;9576;47.792;9.628;2022-10-30T06:12:26;10.60;;;5.43;;
18887;SDS011;9576;47.792;9.628;2022-10-30T06:15:28;12.57;;;5.57;;
18887;SDS011;9576;47.792;9.628;2022-10-30T06:18:30;11.05;;;5.85;;
18887;SDS011;9576;47.792;9.628;2022-10-30T06:21:32;14.13;;;5.15;;
18887;SDS011;9576;47.792;9.628;2022-10-30T06:24:36;10.80;;;5.78;;
18887;SDS011;9576;47.792;9.628;2022-10-30T06:27:37;19.38;;;5.90;;
18887;SDS011;9576;47.792;9.628;2022-10-30T06:30:39;23.38;;;8.23;;
18887;SDS011;9576;47.792;9.628;2022-10-30T06:33:41;11.52;;;7.00;;
18887;SDS011;9576;47.792;9.628;2022-10-30T06:36:43;18.90;;;7.38;;
18887;SDS011;9576;47.792;9.628;2022-10-30T06:39:46;18.27;;;9.55;;
18887;SDS011;9576;47.792;9.628;2022-10-30T06:42:49;19.42;;;9.75;;
18887;SDS011;9576;47.792;9.628;2022-10-30T06:45:52;17.10;;;7.47;;
18887;SDS011;9576;47.792;9.628;2022-10-30T06:48:53;14.55;;;6.78;;
18887;SDS011;9576;47.792;9.628;2022-10-30T06:51:55;14.77;;;6.70;;
18887;SDS011;9576;47.792;9.628;2022-10-30T06:54:58;12.07;;;6.80;;
18887;SDS011;9576;47.792;9.628;2022-10-30T06:58:00;15.30;;;7.07;;
18887;SDS011;9576;47.792;9.628;2022-10-30T07:01:02;15.07;;;6.20;;
18887;SDS011;9576;47.792;9.628;2022-10-30T07:04:05;19.58;;;6.75;;
18887;SDS011;9576;47.792;9.628;2022-10-30T07:07:07;8.35;;;5.40;;
18887;SDS011;9576;47.792;9.628;2022-10-30T07:10:10;9.65;;;5.75;;
18887;SDS011;9576;47.792;9.628;2022-10-30T07:13:12;13.68;;;7.15;;
18887;SDS011;9576;47.792;9.628;2022-10-30T07:16:14;12.25;;;6.97;;
18887;SDS011;9576;47.792;9.628;2022-10-30T07:19:15;11.38;;;6.03;;
18887;SDS011;9576;47.792;9.628;2022-10-30T07:22:17;15.90;;;7.32;;
18887;SDS011;9576;47.792;9.628;2022-10-30T07:25:21;11.40;;;6.97;;
18887;SDS011;9576;47.792;9.628;2022-10-30T07:28:23;16.17;;;8.40;;
18887;SDS011;9576;47.792;9.628;2022-10-30T07:31:25;31.73;;;8.40;;
18887;SDS011;9576;47.792;9.628;2022-10-30T07:34:27;13.35;;;7.18;;
18887;SDS011;9576;47.792;9.628;2022-10-30T07:37:28;17.05;;;8.00;;
18887;SDS011;9576;47.792;9.628;2022-10-30T07:40:32;14.90;;;6.90;;
18887;SDS011;9576;47.792;9.628;2022-10-30T07:43:34;16.33;;;6.28;;
18887;SDS011;9576;47.792;9.628;2022-10-30T07:46:36;13.40;;;6.65;;
18887;SDS011;9576;47.792;9.628;2022-10-30T07:49:38;14.65;;;6.93;;
18887;SDS011;9576;47.792;9.628;2022-10-30T07:52:40;11.52;;;7.07;;
18887;SDS011;9576;47.792;9.628;2022-10-30T07:55:43;26.38;;;8.40;;
18887;SDS011;9576;47.792;9.628;2022-10-30T07:58:45;26.83;;;8.98;;
18887;SDS011;9576;47.792;9.628;2022-10-30T08:01:47;10.15;;;6.93;;
18887;SDS011;9576;47.792;9.628;2022-10-30T08:04:49;12.27;;;6.53;;
18887;SDS011;9576;47.792;9.628;2022-10-30T08:07:51;32.15;;;14.65;;
18887;SDS011;9576;47.792;9.628;2022-10-30T08:10:55;20.58;;;8.88;;
18887;SDS011;9576;47.792;9.628;2022-10-30T08:13:57;21.77;;;7.45;;
18887;SDS011;9576;47.792;9.628;2022-10-30T08:16:59;12.65;;;7.28;;
18887;SDS011;9576;47.792;9.628;2022-10-30T08:20:01;19.50;;;8.32;;
18887;SDS011;9576;47.792;9.628;2022-10-30T08:23:02;23.40;;;8.13;;
18887;SDS011;9576;47.792;9.628;2022-10-30T08:26:06;19.52;;;8.50;;
18887;SDS011;9576;47.792;9.628;2022-10-30T08:29:08;32.78;;;10.93;;
18887;SDS011;9576;47.792;9.628;2022-10-30T08:32:09;29.77;;;11.52;;
18887;SDS011;9576;47.792;9.628;2022-10-30T08:35:11;22.55;;;8.95;;
18887;SDS011;9576;47.792;9.628;2022-10-30T08:38:15;16.55;;;8.35;;
18887;SDS011;9576;47.792;9.628;2022-10-30T08:41:18;28.55;;;9.10;;
18887;SDS011;9576;47.792;9.628;2022-10-30T08:44:20;16.58;;;8.98;;
18887;SDS011;9576;47.792;9.628;2022-10-30T08:47:22;20.25;;;10.18;;
18887;SDS011;9576;47.792;9.628;2022-10-30T08:50:24;17.63;;;8.90;;
18887;SDS011;9576;47.792;9.628;2022-10-30T08:53:26;22.63;;;11.32;;
18887;SDS011;9576;47.792;9.628;2022-10-30T08:56:30;20.73;;;10.30;;
18887;SDS011;9576;47.792;9.628;2022-10-30T08:59:31;20.85;;;9.80;;
18887;SDS011;9576;47.792;9.628;2022-10-30T09:02:34;20.52;;;10.05;;
18887;SDS011;9576;47.792;9.628;2022-10-30T09:05:38;21.17;;;10.48;;
18887;SDS011;9576;47.792;9.628;2022-10-30T09:08:40;29.05;;;10.55;;
18887;SDS011;9576;47.792;9.628;2022-10-30T09:11:43;22.73;;;10.05;;
18887;SDS011;9576;47.792;9.628;2022-10-30T09:14:47;31.13;;;9.70;;
18887;SDS011;9576;47.792;9.628;2022-10-30T09:17:54;18.10;;;9.35;;
18887;SDS011;9576;47.792;9.628;2022-10-30T09:20:56;22.08;;;9.35;;
18887;SDS011;9576;47.792;9.628;2022-10-30T09:23:58;36.92;;;10.43;;
18887;SDS011;9576;47.792;9.628;2022-10-30T09:27:01;19.23;;;10.50;;
18887;SDS011;9576;47.792;9.628;2022-10-30T09:30:04;22.13;;;9.85;;
18887;SDS011;9576;47.792;9.628;2022-10-30T09:33:07;20.20;;;10.75;;
18887;SDS011;9576;47.792;9.628;2022-10-30T09:36:09;27.77;;;10.23;;
18887;SDS011;9576;47.792;9.628;2022-10-30T09:39:11;32.53;;;12.60;;
18887;SDS011;9576;47.792;9.628;2022-10-30T09:42:22;33.15;;;13.18;;
18887;SDS011;9576;47.792;9.628;2022-10-30T09:46:00;31.52;;;13.90;;
18887;SDS011;9576;47.792;9.628;2022-10-30T09:49:18;30.63;;;14.68;;
18887;SDS011;9576;47.792;9.628;2022-10-30T09:52:37;36.28;;;15.07;;
18887;SDS011;9576;47.792;9.628;2022-10-30T09:55:45;36.97;;;18.17;;
18887;SDS011;9576;47.792;9.628;2022-10-30T09:58:55;52.92;;;19.35;;
18887;SDS011;9576;47.792;9.628;2022-10-30T10:02:10;41.70;;;15.50;;
18887;SDS011;9576;47.792;9.628;2022-10-30T10:05:20;38.95;;;16.30;;
18887;SDS011;9576;47.792;9.628;2022-10-30T10:08:26;40.05;;;16.95;;
18887;SDS011;9576;47.792;9.628;2022-10-30T10:11:34;27.45;;;15.90;;
18887;SDS011;9576;47.792;9.628;2022-10-30T10:14:40;39.25;;;17.40;;
18887;SDS011;9576;47.792;9.628;2022-10-30T10:17:45;32.17;;;15.95;;
18887;SDS011;9576;47.792;9.628;2022-10-30T10:20:48;42.53;;;16.65;;
18887;SDS011;9576;47.792;9.628;2022-10-30T10:23:53;46.47;;;17.35;;
18887;SDS011;9576;47.792;9.628;2022-10-30T10:26:59;34.15;;;15.90;;
18887;SDS011;9576;47.792;9.628;2022-10-30T10:30:11;35.35;;;16.02;;
18887;SDS011;9576;47.792;9.628;2022-10-30T10:33:29;32.63;;;13.27;;
18887;SDS011;9576;47.792;9.628;2022-10-30T10:36:44;36.88;;;15.80;;
18887;SDS011;9576;47.792;9.628;2022-10-30T10:39:57;29.77;;;13.98;;
18887;SDS011;9576;47.792;9.628;2022-10-30T10:43:20;40.13;;;15.43;;
18887;SDS011;9576;47.792;9.628;2022-10-30T10:46:36;34.53;;;13.43;;
18887;SDS011;9576;47.792;9.628;2022-10-30T10:49:51;31.63;;;12.15;;
18887;SDS011;9576;47.792;9.628;2022-10-30T10:53:04;29.92;;;12.43;;
18887;SDS011;9576;47.792;9.628;2022-10-30T10:56:11;22.35;;;11.80;;
18887;SDS011;9576;47.792;9.628;2022-10-30T10:59:15;33.88;;;13.55;;
18887;SDS011;9576;47.792;9.628;2022-10-30T11:02:26;19.95;;;10.50;;
18887;SDS011;9576;47.792;9.628;2022-10-30T11:05:34;23.87;;;8.87;;
18887;SDS011;9576;47.792;9.628;2022-10-30T11:08:39;17.00;;;9.20;;
18887;SDS011;9576;47.792;9.628;2022-10-30T11:11:42;22.45;;;9.32;;
18887;SDS011;9576;47.792;9.628;2022-10-30T11:14:44;36.47;;;11.85;;
18887;SDS011;9576;47.792;9.628;2022-10-30T11:17:49;22.23;;;9.15;;
18887;SDS011;9576;47.792;9.628;2022-10-30T11:20:58;27.85;;;10.55;;
18887;SDS011;9576;47.792;9.628;2022-10-30T11:24:03;23.42;;;9.10;;
18887;SDS011;9576;47.792;9.628;2022-10-30T11:27:27;22.00;;;8.38;;
18887;SDS011;9576;47.792;9.628;2022-10-30T11:30:29;29.02;;;8.25;;
18887;SDS011;9576;47.792;9.628;2022-10-30T11:33:33;31.02;;;7.90;;
18887;SDS011;9576;47.792;9.628;2022-10-30T11:36:35;33.05;;;7.07;;
18887;SDS011;9576;47.792;9.628;2022-10-30T11:39:37;13.13;;;6.97;;
18887;SDS011;9576;47.792;9.628;2022-10-30T11:42:39;22.17;;;6.93;;
18887;SDS011;9576;47.792;9.628;2022-10-30T11:45:43;30.98;;;7.18;;
18887;SDS011;9576;47.792;9.628;2022-10-30T11:48:47;16.00;;;6.53;;
18887;SDS011;9576;47.792;9.628;2022-10-30T11:51:53;17.85;;;7.30;;
18887;SDS011;9576;47.792;9.628;2022-10-30T11:54:56;15.73;;;6.63;;
18887;SDS011;9576;47.792;9.628;2022-10-30T11:58:01;18.67;;;7.18;;
18887;SDS011;9576;47.792;9.628;2022-10-30T12:01:11;22.65;;;7.22;;
18887;SDS011;9576;47.792;9.628;2022-10-30T12:04:21;15.52;;;6.80;;
18887;SDS011;9576;47.792;9.628;2022-10-30T12:07:26;19.35;;;6.25;;
18887;SDS011;9576;47.792;9.628;2022-10-30T12:10:31;16.48;;;7.28;;
18887;SDS011;9576;47.792;9.628;2022-10-30T12:13:37;16.60;;;6.13;;
18887;SDS011;9576;47.792;9.628;2022-10-30T12:16:42;18.38;;;5.72;;
18887;SDS011;9576;47.792;9.628;2022-10-30T12:19:49;17.65;;;6.43;;
18887;SDS011;9576;47.792;9.628;2022-10-30T12:22:53;11.02;;;5.47;;
18887;SDS011;9576;47.792;9.628;2022-10-30T12:25:57;18.27;;;5.47;;
18887;SDS011;9576;47.792;9.628;2022-10-30T12:29:01;17.48;;;5.70;;
18887;SDS011;9576;47.792;9.628;2022-10-30T12:32:06;19.58;;;5.38;;
18887;SDS011;9576;47.792;9.628;2022-10-30T12:35:19;23.73;;;4.90;;
18887;SDS011;9576;47.792;9.628;2022-10-30T12:38:32;10.93;;;4.97;;
18887;SDS011;9576;47.792;9.628;2022-10-30T12:41:38;13.93;;;5.75;;
18887;SDS011;9576;47.792;9.628;2022-10-30T12:44:43;31.33;;;6.30;;
18887;SDS011;9576;47.792;9.628;2022-10-30T12:47:49;12.95;;;4.18;;
18887;SDS011;9576;47.792;9.628;2022-10-30T12:51:00;12.27;;;5.57;;
18887;SDS011;9576;47.792;9.628;2022-10-30T12:54:13;18.35;;;5.82;;
18887;SDS011;9576;47.792;9.628;2022-10-30T12:57:24;12.25;;;5.18;;
18887;SDS011;9576;47.792;9.628;2022-10-30T13:00:29;15.50;;;5.80;;
18887;SDS011;9576;47.792;9.628;2022-10-30T13:03:37;21.98;;;5.05;;
18887;SDS011;9576;47.792;9.628;2022-10-30T13:06:45;13.85;;;4.50;;
18887;SDS011;9576;47.792;9.628;2022-10-30T13:09:55;16.83;;;4.97;;
18887;SDS011;9576;47.792;9.628;2022-10-30T13:13:05;20.75;;;6.03;;
18887;SDS011;9576;47.792;9.628;2022-10-30T13:16:13;17.15;;;4.93;;
18887;SDS011;9576;47.792;9.628;2022-10-30T13:19:19;15.35;;;4.85;;
18887;SDS011;9576;47.792;9.628;2022-10-30T13:22:24;12.18;;;5.20;;
18887;SDS011;9576;47.792;9.628;2022-10-30T13:25:32;10.82;;;4.40;;
18887;SDS011;9576;47.792;9.628;2022-10-30T13:28:40;9.20;;;4.82;;
18887;SDS011;9576;47.792;9.628;2022-10-30T13:31:50;23.85;;;5.38;;
18887;SDS011;9576;47.792;9.628;2022-10-30T13:35:00;22.25;;;4.45;;
18887;SDS011;9576;47.792;9.628;2022-10-30T13:38:26;20.73;;;5.13;;
18887;SDS011;9576;47.792;9.628;2022-10-30T13:41:39;16.05;;;5.10;;
18887;SDS011;9576;47.792;9.628;2022-10-30T13:44:55;21.55;;;6.70;;
18887;SDS011;9576;47.792;9.628;2022-10-30T13:48:07;20.80;;;5.70;;
18887;SDS011;9576;47.792;9.628;2022-10-30T13:51:20;17.83;;;6.00;;
18887;SDS011;9576;47.792;9.628;2022-10-30T13:54:36;22.30;;;6.72;;
18887;SDS011;9576;47.792;9.628;2022-10-30T13:57:41;16.98;;;7.00;;
18887;SDS011;9576;47.792;9.628;2022-10-30T14:00:53;22.80;;;8.05;;
18887;SDS011;9576;47.792;9.628;2022-10-30T14:04:00;21.60;;;6.78;;
18887;SDS011;9576;47.792;9.628;2022-10-30T14:07:15;16.50;;;6.82;;
18887;SDS011;9576;47.792;9.628;2022-10-30T14:10:30;15.52;;;7.00;;
18887;SDS011;9576;47.792;9.628;2022-10-30T14:13:52;21.80;;;7.30;;
18887;SDS011;9576;47.792;9.628;2022-10-30T14:17:09;18.42;;;7.85;;
18887;SDS011;9576;47.792;9.628;2022-10-30T14:20:25;23.90;;;7.80;;
18887;SDS011;9576;47.792;9.628;2022-10-30T14:23:29;22.52;;;7.65;;
18887;SDS011;9576;47.792;9.628;2022-10-30T14:26:36;24.70;;;8.85;;
18887;SDS011;9576;47.792;9.628;2022-10-30T14:32:49;20.75;;;8.27;;
18887;SDS011;9576;47.792;9.628;2022-10-30T14:39:26;30.27;;;8.10;;
18887;SDS011;9576;47.792;9.628;2022-10-30T14:42:31;25.58;;;8.13;;
18887;SDS011;9576;47.792;9.628;2022-10-30T14:45:40;19.73;;;7.47;;
18887;SDS011;9576;47.792;9.628;2022-10-30T14:48:47;29.13;;;7.45;;
18887;SDS011;9576;47.792;9.628;2022-10-30T14:51:58;31.25;;;8.40;;
18887;SDS011;9576;47.792;9.628;2022-10-30T14:58:36;21.17;;;7.47;;
18887;SDS011;9576;47.792;9.628;2022-10-30T15:01:41;18.10;;;7.40;;
18887;SDS011;9576;47.792;9.628;2022-10-30T15:04:53;27.17;;;7.85;;
18887;SDS011;9576;47.792;9.628;2022-10-30T15:08:10;14.50;;;6.63;;
18887;SDS011;9576;47.792;9.628;2022-10-30T15:11:39;16.02;;;7.35;;
18887;SDS011;9576;47.792;9.628;2022-10-30T15:14:55;23.95;;;8.10;;
18887;SDS011;9576;47.792;9.628;2022-10-30T15:18:00;26.70;;;9.75;;
18887;SDS011;9576;47.792;9.628;2022-10-30T15:21:10;28.88;;;7.85;;
18887;SDS011;9576;47.792;9.628;2022-10-30T15:24:20;26.23;;;8.18;;
18887;SDS011;9576;47.792;9.628;2022-10-30T15:27:24;32.88;;;8.60;;
18887;SDS011;9576;47.792;9.628;2022-10-30T15:30:28;32.58;;;8.40;;
18887;SDS011;9576;47.792;9.628;2022-10-30T15:33:31;23.98;;;9.57;;
18887;SDS011;9576;47.792;9.628;2022-10-30T15:36:39;22.35;;;8.65;;
18887;SDS011;9576;47.792;9.628;2022-10-30T15:39:42;26.23;;;9.27;;
18887;SDS011;9576;47.792;9.628;2022-10-30T15:42:44;17.33;;;7.32;;
18887;SDS011;9576;47.792;9.628;2022-10-30T15:45:49;16.57;;;8.00;;
18887;SDS011;9576;47.792;9.628;2022-10-30T15:48:55;33.72;;;9.25;;
18887;SDS011;9576;47.792;9.628;2022-10-30T15:51:56;17.65;;;7.38;;
18887;SDS011;9576;47.792;9.628;2022-10-30T15:55:00;19.73;;;7.80;;
18887;SDS011;9576;47.792;9.628;2022-10-30T15:58:06;15.27;;;7.15;;
18887;SDS011;9576;47.792;9.628;2022-10-30T16:01:23;34.55;;;9.23;;
18887;SDS011;9576;47.792;9.628;2022-10-30T16:04:29;24.45;;;8.05;;
18887;SDS011;9576;47.792;9.628;2022-10-30T16:07:33;18.85;;;7.05;;
18887;SDS011;9576;47.792;9.628;2022-10-30T16:10:35;41.92;;;8.45;;
18887;SDS011;9576;47.792;9.628;2022-10-30T16:13:37;20.92;;;8.75;;
18887;SDS011;9576;47.792;9.628;2022-10-30T16:16:40;26.63;;;8.85;;
18887;SDS011;9576;47.792;9.628;2022-10-30T16:19:45;19.98;;;8.88;;
18887;SDS011;9576;47.792;9.628;2022-10-30T16:22:49;20.05;;;8.68;;
18887;SDS011;9576;47.792;9.628;2022-10-30T16:25:55;26.33;;;9.20;;
18887;SDS011;9576;47.792;9.628;2022-10-30T16:28:58;31.00;;;9.40;;
18887;SDS011;9576;47.792;9.628;2022-10-30T16:32:05;21.50;;;9.98;;
18887;SDS011;9576;47.792;9.628;2022-10-30T16:35:11;32.22;;;9.20;;
18887;SDS011;9576;47.792;9.628;2022-10-30T16:38:13;29.75;;;10.23;;
18887;SDS011;9576;47.792;9.628;2022-10-30T16:41:15;29.50;;;9.13;;
18887;SDS011;9576;47.792;9.628;2022-10-30T16:44:21;18.33;;;7.25;;
18887;SDS011;9576;47.792;9.628;2022-10-30T16:47:28;22.83;;;8.82;;
18887;SDS011;9576;47.792;9.628;2022-10-30T16:50:32;25.38;;;8.60;;
18887;SDS011;9576;47.792;9.628;2022-10-30T16:53:35;26.92;;;9.32;;
18887;SDS011;9576;47.792;9.628;2022-10-30T16:56:37;24.48;;;10.32;;
18887;SDS011;9576;47.792;9.628;2022-10-30T16:59:46;23.80;;;9.65;;
18887;SDS011;9576;47.792;9.628;2022-10-30T17:02:51;21.83;;;9.95;;
18887;SDS011;9576;47.792;9.628;2022-10-30T17:05:58;29.08;;;11.05;;
18887;SDS011;9576;47.792;9.628;2022-10-30T17:09:05;31.65;;;10.80;;
18887;SDS011;9576;47.792;9.628;2022-10-30T17:12:13;23.23;;;9.50;;
18887;SDS011;9576;47.792;9.628;2022-10-30T17:15:19;24.48;;;10.05;;
18887;SDS011;9576;47.792;9.628;2022-10-30T17:18:27;24.08;;;12.18;;
18887;SDS011;9576;47.792;9.628;2022-10-30T17:21:36;26.60;;;11.02;;
18887;SDS011;9576;47.792;9.628;2022-10-30T17:24:40;25.63;;;11.25;;
18887;SDS011;9576;47.792;9.628;2022-10-30T17:27:43;18.30;;;9.20;;
18887;SDS011;9576;47.792;9.628;2022-10-30T17:30:48;19.88;;;8.32;;
18887;SDS011;9576;47.792;9.628;2022-10-30T17:37:23;21.15;;;9.93;;
18887;SDS011;9576;47.792;9.628;2022-10-30T17:40:25;21.75;;;9.60;;
18887;SDS011;9576;47.792;9.628;2022-10-30T17:43:28;16.17;;;8.32;;
18887;SDS011;9576;47.792;9.628;2022-10-30T17:46:32;21.83;;;9.45;;
18887;SDS011;9576;47.792;9.628;2022-10-30T17:49:35;32.25;;;12.90;;
18887;SDS011;9576;47.792;9.628;2022-10-30T17:52:37;25.20;;;9.70;;
18887;SDS011;9576;47.792;9.628;2022-10-30T17:55:39;31.30;;;9.38;;
18887;SDS011;9576;47.792;9.628;2022-10-30T17:58:43;23.98;;;9.55;;
18887;SDS011;9576;47.792;9.628;2022-10-30T18:01:44;19.98;;;9.45;;
18887;SDS011;9576;47.792;9.628;2022-10-30T18:04:49;26.92;;;10.20;;
18887;SDS011;9576;47.792;9.628;2022-10-30T18:07:51;27.98;;;12.48;;
18887;SDS011;9576;47.792;9.628;2022-10-30T18:10:53;21.52;;;9.40;;
18887;SDS011;9576;47.792;9.628;2022-10-30T18:13:55;30.15;;;10.43;;
18887;SDS011;9576;47.792;9.628;2022-10-30T18:16:58;25.77;;;10.98;;
18887;SDS011;9576;47.792;9.628;2022-10-30T18:20:01;29.52;;;11.27;;
18887;SDS011;9576;47.792;9.628;2022-10-30T18:23:03;27.60;;;10.75;;
18887;SDS011;9576;47.792;9.628;2022-10-30T18:26:14;26.02;;;10.55;;
18887;SDS011;9576;47.792;9.628;2022-10-30T18:29:18;29.33;;;13.25;;
18887;SDS011;9576;47.792;9.628;2022-10-30T18:32:20;31.05;;;13.50;;
18887;SDS011;9576;47.792;9.628;2022-10-30T18:35:27;27.27;;;12.50;;
18887;SDS011;9576;47.792;9.628;2022-10-30T18:38:30;34.45;;;14.18;;
18887;SDS011;9576;47.792;9.628;2022-10-30T18:41:32;38.78;;;13.82;;
18887;SDS011;9576;47.792;9.628;2022-10-30T18:44:36;34.60;;;14.43;;
18887;SDS011;9576;47.792;9.628;2022-10-30T18:47:38;47.45;;;16.38;;